Time;durP1;ratioP1;P1;durP2;ratioP2;P2;SDS_P1;SDS_P2;PMS_P1;PMS_P2;Temp;Humidity;BMP_temperature;BMP_pressure;BME280_temperature;BME280_humidity;BME280_pressure;Samples;Min_cycle;Max_cycle;Signal;HPM_P1;HPM_P2
2023/01/29 00:01:33;;;;;;;1.00;0.90;;;3.10;99.90;;;;;;5061030;28;20282;-62
2023/01/29 00:04:03;;;;;;;1.20;1.10;;;3.20;99.90;;;;;;5061499;28;20227;-62
2023/01/29 00:06:31;;;;;;;1.00;0.90;;;3.20;99.90;;;;;;5062164;28;20243;-62
2023/01/29 00:08:59;;;;;;;1.23;1.10;;;3.10;99.90;;;;;;5062475;28;20230;-61
2023/01/29 00:11:27;;;;;;;1.20;1.10;;;3.30;99.90;;;;;;5061272;28;20307;-62
2023/01/29 00:13:54;;;;;;;1.30;1.20;;;3.30;99.90;;;;;;5062325;28;20247;-62
2023/01/29 00:16:22;;;;;;;0.85;0.85;;;3.50;99.90;;;;;;5062578;28;20269;-62
2023/01/29 00:18:50;;;;;;;0.90;0.90;;;3.60;99.90;;;;;;5061675;28;20664;-62
2023/01/29 00:21:21;;;;;;;0.70;0.70;;;3.70;99.90;;;;;;5061865;28;20192;-62
2023/01/29 00:23:49;;;;;;;1.27;1.17;;;3.80;99.90;;;;;;5062692;28;20305;-62
2023/01/29 00:26:18;;;;;;;1.02;0.85;;;3.90;99.90;;;;;;5061687;28;20213;-62
2023/01/29 00:28:45;;;;;;;0.80;0.80;;;3.90;99.90;;;;;;5062372;28;20201;-62
2023/01/29 00:31:15;;;;;;;0.80;0.73;;;4.00;99.90;;;;;;5062259;28;20229;-62
2023/01/29 00:33:43;;;;;;;1.02;0.93;;;3.70;99.90;;;;;;5061759;28;20199;-62
2023/01/29 00:36:13;;;;;;;1.30;1.20;;;3.50;99.90;;;;;;5061845;28;20196;-62
2023/01/29 00:38:42;;;;;;;1.25;1.15;;;3.40;99.90;;;;;;5061607;28;20229;-61
2023/01/29 00:46:43;;;;;;;0.95;0.82;;;3.40;99.90;;;;;;5061634;28;20213;-62
2023/01/29 00:49:11;;;;;;;0.90;0.90;;;3.50;99.90;;;;;;5061440;28;20677;-62
2023/01/29 00:51:39;;;;;;;1.20;1.10;;;3.60;99.90;;;;;;5060531;28;20211;-63
2023/01/29 00:54:08;;;;;;;0.98;0.88;;;3.70;99.90;;;;;;5062703;28;20703;-62
2023/01/29 00:56:37;;;;;;;0.80;0.80;;;3.60;99.90;;;;;;5062877;28;20227;-62
2023/01/29 00:59:05;;;;;;;0.70;0.70;;;3.50;99.90;;;;;;5067307;28;20236;-63
2023/01/29 01:04:18;;;;;;;1.10;1.00;;;3.60;99.90;;;;;;5067422;28;20719;-62
2023/01/29 01:06:46;;;;;;;0.70;0.60;;;3.60;99.90;;;;;;5069992;28;20650;-62
2023/01/29 01:12:01;;;;;;;1.48;1.35;;;3.30;99.90;;;;;;5070012;28;20241;-62
2023/01/29 01:14:28;;;;;;;1.00;0.90;;;3.30;99.90;;;;;;5072793;28;20223;-62
2023/01/29 01:16:57;;;;;;;0.95;0.85;;;3.40;99.90;;;;;;5073284;28;20781;-62
2023/01/29 01:19:24;;;;;;;0.90;0.90;;;3.40;99.90;;;;;;5072332;28;20207;-62
2023/01/29 01:21:52;;;;;;;0.70;0.70;;;3.10;99.90;;;;;;5072695;28;20199;-63
2023/01/29 01:24:22;;;;;;;1.20;1.10;;;3.10;99.90;;;;;;5071788;28;20222;-62
2023/01/29 01:26:50;;;;;;;1.15;1.05;;;3.10;99.90;;;;;;5065501;28;20202;-62
2023/01/29 01:29:17;;;;;;;0.90;0.90;;;3.30;99.90;;;;;;5069931;28;20275;-63
2023/01/29 01:31:45;;;;;;;1.60;1.40;;;3.50;99.90;;;;;;5071774;28;20791;-63
2023/01/29 01:34:13;;;;;;;0.82;0.82;;;3.60;99.90;;;;;;5072490;28;20684;-63
2023/01/29 01:36:41;;;;;;;1.00;0.90;;;3.70;99.90;;;;;;5072399;28;20195;-63
2023/01/29 01:39:09;;;;;;;1.33;1.23;;;3.80;99.90;;;;;;5065023;28;20199;-63
2023/01/29 01:41:38;;;;;;;0.95;0.82;;;3.90;99.90;;;;;;5063916;28;20316;-62
2023/01/29 01:44:06;;;;;;;1.33;1.05;;;4.00;99.90;;;;;;5064492;28;20231;-63
2023/01/29 01:46:36;;;;;;;1.40;1.30;;;4.10;99.90;;;;;;5065055;28;20213;-62
2023/01/29 01:49:09;;;;;;;1.10;1.05;;;4.00;99.90;;;;;;5064713;28;20278;-62
2023/01/29 01:51:42;;;;;;;1.08;0.98;;;4.10;99.90;;;;;;5064373;28;20250;-63
2023/01/29 01:54:14;;;;;;;0.82;0.80;;;4.00;99.90;;;;;;5063889;28;20228;-62
2023/01/29 01:56:48;;;;;;;1.20;1.02;;;4.00;99.90;;;;;;5062973;28;20226;-61
2023/01/29 01:59:18;;;;;;;1.10;1.00;;;4.00;99.90;;;;;;5063692;28;20295;-62
2023/01/29 02:01:50;;;;;;;1.23;1.13;;;4.00;99.90;;;;;;5063480;28;20219;-61
2023/01/29 02:10:05;;;;;;;1.00;0.90;;;4.30;99.90;;;;;;5045140;28;20272;-65
2023/01/29 02:12:36;;;;;;;1.40;1.30;;;4.40;99.90;;;;;;5044954;28;20230;-65
2023/01/29 02:15:05;;;;;;;1.00;0.90;;;4.30;99.90;;;;;;5045996;28;20200;-65
2023/01/29 02:17:33;;;;;;;0.82;0.80;;;4.30;99.90;;;;;;5044882;28;20704;-65
2023/01/29 02:20:09;;;;;;;2.40;1.25;;;4.30;99.90;;;;;;5045268;28;20197;-65
2023/01/29 02:22:59;;;;;;;1.00;0.80;;;4.20;99.90;;;;;;5045162;28;20639;-66
2023/01/29 02:26:04;;;;;;;0.90;0.90;;;4.20;99.90;;;;;;5044358;28;21024;-66
2023/01/29 02:28:47;;;;;;;0.77;0.77;;;4.20;99.90;;;;;;5045255;28;20207;-65
2023/01/29 02:31:28;;;;;;;0.82;0.82;;;4.20;99.90;;;;;;5043881;28;20212;-66
2023/01/29 02:34:07;;;;;;;1.38;1.08;;;4.30;99.90;;;;;;5045585;28;20205;-65
2023/01/29 02:36:41;;;;;;;0.60;0.60;;;4.20;99.90;;;;;;5045249;28;20720;-65
2023/01/29 02:39:17;;;;;;;1.77;0.90;;;4.20;99.90;;;;;;5044895;28;20201;-65
2023/01/29 02:41:55;;;;;;;1.30;1.20;;;4.20;99.90;;;;;;5046242;28;20208;-65
2023/01/29 02:44:32;;;;;;;0.95;0.90;;;4.20;99.90;;;;;;5049073;28;20193;-65
2023/01/29 02:47:03;;;;;;;1.40;1.20;;;4.20;99.90;;;;;;5044233;28;20219;-64
2023/01/29 02:49:35;;;;;;;0.90;0.90;;;4.10;99.90;;;;;;5043628;28;20214;-64
2023/01/29 02:52:09;;;;;;;1.20;1.10;;;4.10;99.90;;;;;;5044305;28;20679;-64
2023/01/29 02:54:44;;;;;;;0.82;0.80;;;4.20;99.90;;;;;;5044090;28;20238;-64
2023/01/29 02:57:19;;;;;;;0.73;0.70;;;4.10;99.90;;;;;;5046786;28;20775;-63
2023/01/29 02:59:54;;;;;;;1.00;0.90;;;4.10;99.90;;;;;;5039900;28;20218;-64
2023/01/29 03:02:28;;;;;;;1.05;0.80;;;4.20;99.90;;;;;;5048099;28;20283;-64
2023/01/29 03:05:01;;;;;;;1.30;1.20;;;4.20;99.90;;;;;;5046272;28;20208;-64
2023/01/29 03:07:44;;;;;;;1.75;1.10;;;4.20;99.90;;;;;;5045152;28;20793;-63
2023/01/29 03:10:18;;;;;;;1.10;1.00;;;4.20;99.90;;;;;;5041388;28;20639;-64
2023/01/29 03:12:51;;;;;;;1.50;0.95;;;4.20;99.90;;;;;;5043717;28;21134;-65
2023/01/29 03:15:28;;;;;;;0.95;0.82;;;4.30;99.90;;;;;;5047724;28;20292;-64
2023/01/29 03:18:00;;;;;;;1.10;1.00;;;4.30;99.90;;;;;;5048608;28;20286;-65
2023/01/29 03:20:33;;;;;;;1.35;1.25;;;4.30;99.90;;;;;;5045034;28;20843;-64
2023/01/29 03:23:07;;;;;;;1.33;1.20;;;4.40;99.90;;;;;;5047823;28;20195;-64
2023/01/29 03:34:03;;;;;;;1.95;1.83;;;4.30;99.90;;;;;;5042954;28;20190;-64
2023/01/29 03:36:38;;;;;;;1.20;1.10;;;4.30;99.90;;;;;;5047329;28;20211;-64
2023/01/29 03:39:07;;;;;;;1.45;1.35;;;4.30;99.90;;;;;;5043288;28;20196;-63
2023/01/29 03:41:40;;;;;;;1.00;0.90;;;4.30;99.90;;;;;;5045129;28;20671;-65
2023/01/29 03:44:14;;;;;;;1.73;1.13;;;4.30;99.90;;;;;;5046071;28;20196;-64
2023/01/29 03:46:52;;;;;;;1.13;0.90;;;4.20;99.90;;;;;;5046753;28;20298;-65
2023/01/29 03:49:27;;;;;;;1.42;1.25;;;4.30;99.90;;;;;;5043938;28;20291;-65
2023/01/29 03:52:04;;;;;;;1.50;1.20;;;4.30;99.90;;;;;;5043546;28;20220;-65
2023/01/29 03:54:41;;;;;;;1.50;1.40;;;4.30;99.90;;;;;;5042773;28;20231;-65
2023/01/29 03:57:15;;;;;;;1.20;1.10;;;4.30;99.90;;;;;;5043412;28;20216;-65
2023/01/29 03:59:50;;;;;;;1.25;1.15;;;4.20;99.90;;;;;;5043379;28;20233;-63
2023/01/29 04:02:26;;;;;;;1.33;1.20;;;4.30;99.90;;;;;;5042797;28;20206;-65
2023/01/29 04:04:58;;;;;;;1.42;1.33;;;4.30;99.90;;;;;;5042946;28;20798;-64
2023/01/29 04:07:28;;;;;;;1.17;1.02;;;4.40;99.90;;;;;;5048076;28;20264;-64
2023/01/29 04:10:01;;;;;;;1.02;1.02;;;4.30;99.90;;;;;;5043194;28;20328;-66
2023/01/29 04:12:34;;;;;;;0.95;0.85;;;4.30;99.90;;;;;;5044235;28;20664;-65
2023/01/29 04:15:05;;;;;;;1.33;0.93;;;4.30;99.90;;;;;;5043354;28;20232;-63
2023/01/29 04:17:39;;;;;;;1.20;1.10;;;4.30;99.90;;;;;;5043093;28;20239;-62
2023/01/29 04:20:08;;;;;;;1.25;1.15;;;4.30;99.90;;;;;;5042418;28;20670;-64
2023/01/29 04:22:39;;;;;;;1.45;1.15;;;4.30;99.90;;;;;;5044066;28;20197;-64
2023/01/29 04:25:14;;;;;;;1.13;1.02;;;4.30;99.90;;;;;;5042918;28;20289;-63
2023/01/29 04:27:52;;;;;;;1.30;1.20;;;4.30;99.90;;;;;;5043819;28;20219;-64
2023/01/29 04:30:27;;;;;;;1.98;1.45;;;4.30;99.90;;;;;;5042613;28;20290;-64
2023/01/29 04:33:07;;;;;;;1.08;0.98;;;4.30;99.90;;;;;;5048428;28;20247;-64
2023/01/29 04:35:47;;;;;;;1.50;1.00;;;4.30;99.90;;;;;;5042225;28;20216;-64
2023/01/29 04:38:25;;;;;;;1.40;1.30;;;4.30;99.90;;;;;;5043177;28;20309;-65
2023/01/29 04:41:01;;;;;;;1.63;1.50;;;4.20;99.90;;;;;;5043977;28;20283;-62
2023/01/29 04:43:34;;;;;;;1.48;1.30;;;4.30;99.90;;;;;;5046870;28;20202;-63
2023/01/29 04:46:15;;;;;;;1.10;1.02;;;4.30;99.90;;;;;;5046908;28;20191;-63
2023/01/29 04:49:00;;;;;;;1.35;1.25;;;4.10;99.90;;;;;;5047289;28;20283;-63
2023/01/29 04:51:36;;;;;;;1.52;1.42;;;3.90;99.90;;;;;;5045225;28;20721;-64
2023/01/29 04:54:12;;;;;;;1.25;1.05;;;3.80;99.90;;;;;;5046619;28;20309;-64
2023/01/29 04:56:47;;;;;;;1.63;1.52;;;3.80;99.90;;;;;;5046822;28;20217;-64
2023/01/29 04:59:21;;;;;;;1.30;1.20;;;3.80;99.90;;;;;;5047212;28;20282;-64
2023/01/29 05:01:49;;;;;;;1.50;1.05;;;3.90;99.90;;;;;;5048701;28;20611;-64
2023/01/29 05:04:21;;;;;;;1.90;1.80;;;3.90;99.90;;;;;;5050738;28;20188;-64
2023/01/29 05:06:49;;;;;;;1.20;1.10;;;4.00;99.90;;;;;;5045770;28;20322;-64
2023/01/29 05:09:18;;;;;;;1.58;1.48;;;3.80;99.90;;;;;;5047044;28;20201;-64
2023/01/29 05:11:48;;;;;;;1.65;1.55;;;3.80;99.90;;;;;;5046252;28;20289;-64
2023/01/29 05:14:19;;;;;;;1.50;1.40;;;3.80;99.90;;;;;;5046761;28;20196;-64
2023/01/29 05:16:52;;;;;;;1.77;1.67;;;3.80;99.90;;;;;;5046621;28;20298;-63
2023/01/29 05:19:21;;;;;;;1.70;1.25;;;3.80;99.90;;;;;;5044428;28;20859;-64
2023/01/29 05:21:50;;;;;;;1.30;1.20;;;3.90;99.90;;;;;;5045227;28;20206;-63
2023/01/29 05:24:20;;;;;;;1.40;1.30;;;3.90;99.90;;;;;;5046169;28;20216;-63
2023/01/29 05:29:35;;;;;;;2.50;1.65;;;4.00;99.90;;;;;;5044244;28;20217;-64
2023/01/29 05:32:03;;;;;;;1.35;1.17;;;4.10;99.90;;;;;;5045952;28;20564;-63
2023/01/29 05:34:34;;;;;;;2.00;1.40;;;4.00;99.90;;;;;;5045864;28;20206;-64
2023/01/29 05:37:02;;;;;;;1.23;1.05;;;4.10;99.90;;;;;;5050363;28;20229;-64
2023/01/29 05:39:30;;;;;;;1.35;1.25;;;4.00;99.90;;;;;;5052570;28;20234;-63
2023/01/29 05:41:58;;;;;;;1.70;1.60;;;3.90;99.90;;;;;;5051701;28;20228;-63
2023/01/29 05:44:26;;;;;;;2.00;1.80;;;3.90;99.90;;;;;;5052622;28;20322;-64
2023/01/29 05:46:54;;;;;;;1.85;1.38;;;3.80;99.90;;;;;;5051823;28;20308;-64
2023/01/29 05:49:22;;;;;;;1.55;1.45;;;3.80;99.90;;;;;;5052538;28;20206;-63
2023/01/29 05:51:51;;;;;;;2.22;1.30;;;3.90;99.90;;;;;;5049225;28;20279;-64
2023/01/29 05:54:19;;;;;;;1.92;1.50;;;3.90;99.90;;;;;;5050024;28;20638;-64
2023/01/29 05:56:47;;;;;;;1.25;1.15;;;3.80;99.90;;;;;;5051510;28;20224;-64
2023/01/29 05:59:15;;;;;;;1.98;1.85;;;3.80;99.90;;;;;;5052698;28;20746;-65
2023/01/29 06:01:43;;;;;;;1.55;1.45;;;3.80;99.90;;;;;;5050188;28;20295;-64
2023/01/29 06:04:11;;;;;;;2.30;1.67;;;3.80;99.90;;;;;;5052451;28;20191;-65
2023/01/29 06:06:39;;;;;;;1.85;1.75;;;3.80;99.90;;;;;;5046269;28;20625;-64
2023/01/29 06:09:10;;;;;;;1.67;1.25;;;3.80;99.90;;;;;;5051361;28;20217;-64
2023/01/29 06:11:38;;;;;;;1.80;1.67;;;3.80;99.90;;;;;;5046578;28;20224;-65
2023/01/29 06:14:06;;;;;;;1.73;1.63;;;3.70;99.90;;;;;;5046399;28;20216;-64
2023/01/29 06:16:34;;;;;;;1.63;1.52;;;3.60;99.90;;;;;;5051020;28;20215;-64
2023/01/29 06:19:02;;;;;;;1.90;1.70;;;3.40;99.90;;;;;;5050885;28;20673;-64
2023/01/29 06:21:30;;;;;;;1.55;1.45;;;3.40;99.90;;;;;;5049492;28;20190;-64
2023/01/29 06:23:58;;;;;;;1.42;1.33;;;3.30;99.90;;;;;;5049345;28;20295;-65
2023/01/29 06:26:27;;;;;;;1.20;1.10;;;3.30;99.90;;;;;;5050512;28;20298;-61
2023/01/29 06:28:55;;;;;;;1.98;1.40;;;3.20;99.90;;;;;;5051900;28;20231;-64
2023/01/29 06:31:23;;;;;;;1.83;1.67;;;3.30;99.90;;;;;;5050475;28;20283;-64
2023/01/29 06:34:05;;;;;;;3.22;1.92;;;3.40;99.90;;;;;;5045399;28;20303;-66
2023/01/29 06:36:33;;;;;;;2.13;1.98;;;3.40;99.90;;;;;;5048557;28;20286;-64
2023/01/29 06:39:01;;;;;;;2.47;1.73;;;3.50;99.90;;;;;;5047307;28;20197;-65
2023/01/29 06:41:30;;;;;;;3.40;1.63;;;3.30;99.90;;;;;;5049372;28;20217;-63
2023/01/29 06:43:58;;;;;;;2.55;2.35;;;3.30;99.90;;;;;;5045388;28;20188;-64
2023/01/29 06:46:26;;;;;;;1.20;1.10;;;3.30;99.90;;;;;;5045182;28;20235;-64
2023/01/29 06:48:54;;;;;;;1.67;1.58;;;3.30;99.90;;;;;;5045888;28;20644;-65
2023/01/29 06:51:22;;;;;;;1.60;1.45;;;3.50;99.90;;;;;;5031461;28;20567;-64
2023/01/29 06:53:50;;;;;;;1.77;1.67;;;3.60;99.90;;;;;;5051082;28;20262;-63
2023/01/29 06:56:18;;;;;;;1.70;1.60;;;3.70;99.90;;;;;;5043825;28;20206;-64
2023/01/29 06:58:47;;;;;;;1.42;1.30;;;3.70;99.90;;;;;;5045227;28;20207;-64
2023/01/29 07:01:15;;;;;;;2.70;1.67;;;3.70;99.90;;;;;;5044622;28;20657;-64
2023/01/29 07:04:02;;;;;;;1.60;1.42;;;3.80;99.90;;;;;;5044639;28;20267;-64
2023/01/29 07:06:30;;;;;;;2.10;1.63;;;3.70;99.90;;;;;;5046448;28;20571;-63
2023/01/29 07:08:58;;;;;;;1.60;1.50;;;3.70;99.90;;;;;;5047185;28;20200;-64
2023/01/29 07:11:26;;;;;;;1.73;1.13;;;3.70;99.90;;;;;;5042609;28;20204;-64
2023/01/29 07:13:55;;;;;;;1.92;1.83;;;3.70;99.90;;;;;;5042265;28;20265;-65
2023/01/29 07:16:23;;;;;;;2.00;1.83;;;3.70;99.90;;;;;;5046152;28;20228;-64
2023/01/29 07:18:51;;;;;;;1.52;1.42;;;3.80;99.90;;;;;;5045659;28;20564;-63
2023/01/29 07:21:19;;;;;;;1.92;1.50;;;3.80;99.90;;;;;;5046243;28;20208;-65
2023/01/29 07:23:47;;;;;;;2.40;1.55;;;3.70;99.90;;;;;;5049084;28;20255;-64
2023/01/29 07:26:16;;;;;;;1.95;1.58;;;3.90;99.90;;;;;;5052758;28;20188;-64
2023/01/29 07:28:44;;;;;;;2.10;1.33;;;3.90;99.90;;;;;;5050475;28;20228;-63
2023/01/29 07:31:14;;;;;;;1.30;1.20;;;3.90;99.90;;;;;;5047607;28;20283;-64
2023/01/29 07:33:43;;;;;;;1.90;1.45;;;4.00;99.90;;;;;;5048386;28;20258;-64
2023/01/29 07:36:12;;;;;;;1.40;1.30;;;4.00;99.90;;;;;;5045380;28;20282;-64
2023/01/29 07:38:40;;;;;;;1.60;1.40;;;3.90;99.90;;;;;;5033659;28;20295;-64
2023/01/29 07:41:09;;;;;;;3.95;2.22;;;3.90;99.90;;;;;;5045145;28;20279;-63
2023/01/29 07:43:37;;;;;;;1.42;1.15;;;3.90;99.90;;;;;;5046482;28;20225;-64
2023/01/29 07:46:05;;;;;;;2.03;1.45;;;4.00;99.90;;;;;;5043546;28;20295;-64
2023/01/29 07:48:34;;;;;;;1.42;1.27;;;4.00;99.90;;;;;;5047699;28;20209;-65
2023/01/29 07:51:03;;;;;;;1.77;1.40;;;4.00;99.90;;;;;;5048380;28;20362;-65
2023/01/29 07:53:31;;;;;;;1.08;1.00;;;4.00;99.90;;;;;;5044913;28;20199;-64
2023/01/29 07:55:59;;;;;;;2.20;1.70;;;3.90;99.90;;;;;;5043240;28;20199;-65
2023/01/29 07:58:29;;;;;;;1.90;1.70;;;3.90;99.90;;;;;;5038410;28;20227;-65
2023/01/29 08:00:56;;;;;;;1.75;1.58;;;4.00;99.90;;;;;;5046466;28;20202;-63
2023/01/29 08:03:24;;;;;;;2.42;2.20;;;3.40;99.90;;;;;;5045461;28;20204;-64
2023/01/29 08:05:54;;;;;;;1.63;1.52;;;3.10;99.90;;;;;;5043969;28;20191;-64
2023/01/29 08:08:21;;;;;;;1.70;1.58;;;2.80;99.90;;;;;;5044385;28;20255;-65
2023/01/29 08:10:49;;;;;;;2.35;2.00;;;2.70;99.90;;;;;;5044573;28;20282;-65
2023/01/29 08:13:17;;;;;;;1.83;1.50;;;2.50;99.90;;;;;;5047450;28;20294;-64
2023/01/29 08:15:46;;;;;;;2.90;2.08;;;2.40;99.90;;;;;;5052564;28;20225;-65
2023/01/29 08:18:14;;;;;;;1.60;1.50;;;2.10;99.90;;;;;;5055043;28;20936;-64
2023/01/29 08:20:42;;;;;;;1.73;1.63;;;1.90;99.90;;;;;;5052140;28;20201;-65
2023/01/29 08:23:14;;;;;;;1.58;1.48;;;1.80;99.90;;;;;;5046871;28;21957;-64
2023/01/29 08:25:42;;;;;;;2.38;2.17;;;1.80;99.90;;;;;;5051672;28;20213;-64
2023/01/29 08:28:11;;;;;;;1.88;1.77;;;1.80;99.90;;;;;;5045772;28;20304;-64
2023/01/29 08:30:39;;;;;;;3.00;1.83;;;1.80;99.90;;;;;;5048129;28;20207;-65
2023/01/29 08:33:07;;;;;;;2.75;1.48;;;1.80;99.90;;;;;;5051471;28;20211;-64
2023/01/29 08:35:35;;;;;;;2.15;2.05;;;1.80;99.90;;;;;;5046558;28;20216;-64
2023/01/29 08:38:05;;;;;;;1.88;1.58;;;1.70;99.90;;;;;;5048122;28;20229;-64
2023/01/29 08:40:35;;;;;;;2.17;1.98;;;1.60;99.90;;;;;;5044575;28;20207;-63
2023/01/29 08:43:06;;;;;;;2.63;1.70;;;1.60;99.90;;;;;;5074010;22;20231;-63
2023/01/29 08:45:37;;;;;;;1.52;1.42;;;1.60;99.90;;;;;;5060111;28;20209;-63
2023/01/29 08:48:06;;;;;;;1.60;1.40;;;1.60;99.90;;;;;;5060580;28;20205;-63
2023/01/29 08:50:34;;;;;;;2.45;2.25;;;1.60;99.90;;;;;;5056913;28;20207;-63
2023/01/29 08:53:03;;;;;;;2.92;1.42;;;1.60;99.90;;;;;;5050988;28;20292;-64
2023/01/29 08:55:31;;;;;;;2.63;2.42;;;1.50;99.90;;;;;;5045979;28;20670;-63
2023/01/29 08:58:00;;;;;;;1.50;1.40;;;1.50;99.90;;;;;;5046339;28;20214;-63
2023/01/29 09:00:28;;;;;;;1.75;1.45;;;1.50;99.90;;;;;;5045686;28;20802;-62
2023/01/29 09:02:56;;;;;;;1.42;1.33;;;1.40;99.90;;;;;;5045002;28;20229;-63
2023/01/29 09:05:23;;;;;;;2.00;1.80;;;1.40;99.90;;;;;;5047288;28;20205;-64
2023/01/29 09:07:51;;;;;;;2.85;1.80;;;1.50;99.90;;;;;;5050268;28;20204;-65
2023/01/29 09:10:21;;;;;;;1.60;1.50;;;1.50;99.90;;;;;;5048080;28;20206;-64
2023/01/29 09:12:48;;;;;;;1.63;1.38;;;1.50;99.90;;;;;;5046077;28;20311;-64
2023/01/29 09:15:18;;;;;;;2.30;2.10;;;1.40;99.90;;;;;;5047155;28;20220;-63
2023/01/29 09:17:48;;;;;;;2.67;2.28;;;1.40;99.90;;;;;;5048353;28;20189;-62
2023/01/29 09:20:16;;;;;;;2.15;1.95;;;1.40;99.90;;;;;;5045807;28;20196;-63
2023/01/29 09:22:45;;;;;;;2.75;2.40;;;1.40;99.90;;;;;;5050089;28;20597;-63
2023/01/29 09:25:13;;;;;;;1.60;1.10;;;1.30;99.90;;;;;;5049597;28;20202;-64
2023/01/29 09:27:41;;;;;;;2.65;2.45;;;1.30;99.90;;;;;;5049246;28;20207;-64
2023/01/29 09:30:11;;;;;;;1.85;1.75;;;1.20;99.90;;;;;;5051362;28;20254;-64
2023/01/29 09:32:40;;;;;;;1.75;1.50;;;1.30;99.90;;;;;;5050504;28;20293;-64
2023/01/29 09:35:20;;;;;;;2.75;2.50;;;1.30;99.90;;;;;;5050131;28;20218;-63
2023/01/29 09:37:49;;;;;;;2.15;1.52;;;1.20;99.90;;;;;;5048246;28;20222;-64
2023/01/29 09:40:25;;;;;;;1.60;1.20;;;1.20;99.90;;;;;;5045386;28;20309;-63
2023/01/29 09:42:58;;;;;;;2.08;1.58;;;1.20;99.90;;;;;;5046181;28;20238;-64
2023/01/29 09:45:28;;;;;;;1.55;1.30;;;1.20;99.90;;;;;;5044812;28;20283;-64
2023/01/29 09:48:00;;;;;;;1.77;1.67;;;1.30;99.90;;;;;;5047662;28;20204;-63
2023/01/29 09:50:32;;;;;;;2.55;2.35;;;1.20;99.90;;;;;;5048085;28;20590;-63
2023/01/29 09:53:08;;;;;;;2.90;2.35;;;1.30;99.90;;;;;;5047076;28;20307;-63
2023/01/29 09:55:41;;;;;;;3.85;2.20;;;1.40;99.90;;;;;;5048581;28;20308;-63
2023/01/29 09:58:16;;;;;;;2.33;1.30;;;1.50;99.90;;;;;;5049895;28;20685;-63
2023/01/29 10:00:51;;;;;;;2.85;2.60;;;1.40;99.90;;;;;;5048595;28;20714;-62
2023/01/29 10:03:52;;;;;;;4.00;1.40;;;1.30;99.90;;;;;;5048512;28;20217;-62
2023/01/29 10:06:33;;;;;;;2.17;1.98;;;1.40;99.90;;;;;;4997988;28;20215;-64
2023/01/29 10:09:40;;;;;;;2.88;2.28;;;1.40;99.90;;;;;;5047389;28;20226;-63
2023/01/29 10:12:21;;;;;;;2.42;2.22;;;1.40;99.90;;;;;;5047687;28;20203;-64
2023/01/29 10:14:59;;;;;;;1.83;1.60;;;1.40;99.90;;;;;;5047598;28;20658;-63
2023/01/29 10:17:44;;;;;;;2.15;1.40;;;1.40;99.90;;;;;;5044260;28;21018;-63
2023/01/29 10:20:42;;;;;;;2.35;1.83;;;1.30;99.90;;;;;;5045340;28;20203;-63
2023/01/29 10:23:24;;;;;;;3.63;2.38;;;1.30;99.90;;;;;;5041514;28;20231;-62
2023/01/29 10:25:54;;;;;;;3.00;2.00;;;1.30;99.90;;;;;;5048057;28;20275;-62
2023/01/29 10:28:29;;;;;;;1.83;1.50;;;1.20;99.90;;;;;;5045623;28;20218;-63
2023/01/29 10:31:03;;;;;;;2.50;1.95;;;1.20;99.90;;;;;;5047591;28;20629;-64
2023/01/29 10:33:38;;;;;;;2.67;2.22;;;1.20;99.90;;;;;;5048817;28;20227;-63
2023/01/29 10:36:33;;;;;;;2.30;2.10;;;1.10;99.90;;;;;;5049063;28;20215;-64
2023/01/29 10:39:03;;;;;;;2.30;1.92;;;1.10;99.90;;;;;;5049701;28;20580;-63
2023/01/29 10:41:46;;;;;;;1.80;1.30;;;1.20;99.90;;;;;;5048314;28;20845;-64
2023/01/29 10:44:27;;;;;;;3.15;1.67;;;1.20;99.90;;;;;;5051734;28;20271;-63
2023/01/29 10:47:21;;;;;;;2.00;1.70;;;1.30;99.90;;;;;;5051085;28;20196;-64
2023/01/29 10:50:12;;;;;;;1.73;1.58;;;1.30;99.90;;;;;;5029713;28;20609;-63
2023/01/29 10:52:59;;;;;;;1.98;1.52;;;1.40;99.90;;;;;;5043575;28;20270;-63
2023/01/29 10:55:41;;;;;;;2.90;2.70;;;1.50;99.90;;;;;;5051032;28;20303;-64
2023/01/29 10:58:20;;;;;;;3.05;2.35;;;1.40;99.90;;;;;;5051745;28;20282;-64
2023/01/29 11:00:48;;;;;;;2.38;2.17;;;1.40;99.90;;;;;;5049909;28;20570;-64
2023/01/29 11:03:22;;;;;;;1.38;1.27;;;1.50;99.90;;;;;;5050051;28;20306;-63
2023/01/29 11:06:16;;;;;;;2.13;1.83;;;1.70;99.90;;;;;;5050921;28;20195;-64
2023/01/29 11:08:52;;;;;;;1.70;1.13;;;1.80;99.90;;;;;;5044281;28;20198;-64
2023/01/29 11:11:26;;;;;;;2.05;1.90;;;1.80;99.90;;;;;;5050077;28;20210;-64
2023/01/29 11:13:59;;;;;;;1.70;1.20;;;1.80;99.90;;;;;;5051270;28;20227;-64
2023/01/29 11:16:32;;;;;;;2.33;1.88;;;1.90;99.90;;;;;;5050391;28;20220;-64
2023/01/29 11:19:01;;;;;;;1.73;1.42;;;2.00;99.90;;;;;;5051306;28;20750;-64
2023/01/29 11:21:29;;;;;;;1.40;1.30;;;2.10;99.90;;;;;;5050032;28;20687;-64
2023/01/29 11:24:07;;;;;;;2.55;1.92;;;2.20;99.90;;;;;;5051382;28;20218;-64
2023/01/29 11:26:40;;;;;;;2.30;1.50;;;2.10;99.90;;;;;;5050757;28;20278;-64
2023/01/29 11:29:31;;;;;;;2.90;2.13;;;2.20;99.90;;;;;;5050126;28;20236;-64
2023/01/29 11:32:00;;;;;;;2.20;2.03;;;2.30;99.90;;;;;;5044578;28;20200;-64
2023/01/29 11:34:28;;;;;;;1.77;1.67;;;2.40;99.90;;;;;;5050960;28;20303;-64
2023/01/29 11:36:58;;;;;;;3.45;2.97;;;2.50;99.90;;;;;;5050448;28;20295;-64
2023/01/29 11:39:27;;;;;;;1.88;1.77;;;2.90;99.90;;;;;;5051069;28;20275;-64
2023/01/29 11:41:59;;;;;;;2.17;1.58;;;3.70;99.90;;;;;;5049884;28;20231;-64
2023/01/29 11:44:32;;;;;;;2.00;1.30;;;4.10;99.90;;;;;;5049764;28;20328;-64
2023/01/29 11:47:12;;;;;;;1.58;1.42;;;4.40;99.90;;;;;;5051151;28;20275;-64
2023/01/29 11:49:44;;;;;;;1.77;1.50;;;4.80;99.90;;;;;;5040358;28;20797;-64
2023/01/29 11:52:15;;;;;;;1.30;1.20;;;4.70;99.90;;;;;;5050223;28;20198;-64
2023/01/29 11:54:47;;;;;;;1.50;1.40;;;4.80;99.90;;;;;;5032616;28;20210;-64
2023/01/29 11:57:26;;;;;;;1.92;1.75;;;4.70;99.90;;;;;;5048894;28;20217;-64
2023/01/29 11:59:56;;;;;;;2.38;2.22;;;4.30;99.90;;;;;;5050413;28;20592;-64
2023/01/29 12:02:30;;;;;;;1.70;1.30;;;4.00;99.90;;;;;;5048816;28;20291;-65
2023/01/29 12:05:02;;;;;;;2.95;2.08;;;3.70;99.90;;;;;;5050999;28;20673;-64
2023/01/29 12:07:31;;;;;;;1.58;1.10;;;3.70;99.90;;;;;;5050002;28;20215;-65
2023/01/29 12:10:00;;;;;;;2.70;2.33;;;3.80;99.90;;;;;;5050044;28;20202;-64
2023/01/29 12:12:32;;;;;;;2.75;2.15;;;3.50;99.90;;;;;;5049933;28;20223;-64
2023/01/29 12:15:14;;;;;;;1.23;1.13;;;3.30;99.90;;;;;;5050643;28;20730;-64
2023/01/29 12:17:44;;;;;;;1.67;1.58;;;3.20;99.90;;;;;;5049656;28;20311;-64
2023/01/29 12:20:15;;;;;;;1.52;1.42;;;3.30;99.90;;;;;;5049190;28;20629;-64
2023/01/29 12:22:50;;;;;;;1.70;1.60;;;3.20;99.90;;;;;;5042327;28;20933;-63
2023/01/29 12:25:22;;;;;;;2.83;1.90;;;3.10;99.90;;;;;;5050582;28;20729;-64
2023/01/29 12:27:58;;;;;;;1.73;1.60;;;2.80;99.90;;;;;;5049786;28;20212;-64
2023/01/29 12:30:31;;;;;;;2.67;1.70;;;2.70;99.90;;;;;;5049159;28;20279;-64
2023/01/29 12:33:09;;;;;;;1.98;1.70;;;2.50;99.90;;;;;;5049497;28;20315;-63
2023/01/29 12:35:45;;;;;;;2.20;1.60;;;2.40;99.90;;;;;;5050199;28;20679;-64
2023/01/29 12:38:18;;;;;;;2.33;2.13;;;2.20;99.90;;;;;;5050615;28;20220;-64
2023/01/29 12:40:49;;;;;;;1.88;1.48;;;2.20;99.90;;;;;;5042823;28;20248;-63
2023/01/29 12:43:23;;;;;;;1.80;1.70;;;2.40;99.90;;;;;;5049052;28;20238;-64
2023/01/29 12:45:54;;;;;;;3.20;2.30;;;2.70;99.90;;;;;;5050636;28;20205;-64
2023/01/29 12:48:27;;;;;;;2.50;2.30;;;2.60;99.90;;;;;;5047467;28;20199;-63
2023/01/29 12:51:03;;;;;;;3.47;2.17;;;2.60;99.90;;;;;;5046678;28;20699;-64
2023/01/29 12:53:37;;;;;;;2.75;2.55;;;2.60;99.90;;;;;;5050374;28;20228;-64
2023/01/29 12:56:11;;;;;;;3.10;2.03;;;2.40;99.90;;;;;;5049768;28;20207;-64
2023/01/29 12:58:45;;;;;;;1.48;1.38;;;2.10;99.90;;;;;;5050347;28;20284;-64
2023/01/29 13:01:16;;;;;;;2.80;2.55;;;2.20;99.90;;;;;;5048534;28;20665;-63
2023/01/29 13:03:51;;;;;;;1.88;1.67;;;2.30;99.90;;;;;;5044271;28;20226;-64
2023/01/29 13:06:23;;;;;;;2.08;1.65;;;2.30;99.90;;;;;;5054061;28;20203;-64
2023/01/29 13:08:54;;;;;;;2.10;1.90;;;2.30;99.90;;;;;;5053346;28;20288;-64
2023/01/29 13:11:25;;;;;;;2.40;2.20;;;2.20;99.90;;;;;;5052999;28;20207;-64
2023/01/29 13:13:57;;;;;;;2.47;2.10;;;2.00;99.90;;;;;;5051942;28;20718;-65
2023/01/29 13:16:28;;;;;;;3.65;2.40;;;1.90;99.90;;;;;;5053292;28;20235;-64
2023/01/29 13:18:59;;;;;;;1.65;1.55;;;1.80;99.90;;;;;;5056361;28;20201;-64
2023/01/29 13:21:31;;;;;;;2.00;1.80;;;1.80;99.90;;;;;;5052090;28;20220;-64
2023/01/29 13:24:03;;;;;;;2.13;1.90;;;1.90;99.90;;;;;;5052660;28;20227;-64
2023/01/29 13:26:33;;;;;;;2.47;1.67;;;2.10;99.90;;;;;;5053510;28;20588;-64
2023/01/29 13:29:04;;;;;;;2.25;2.05;;;2.20;99.90;;;;;;5052849;28;20196;-64
2023/01/29 13:31:34;;;;;;;2.33;2.13;;;2.30;99.90;;;;;;5052872;28;20279;-64
2023/01/29 13:34:14;;;;;;;2.30;2.08;;;2.30;99.90;;;;;;5052235;28;20228;-64
2023/01/29 13:36:44;;;;;;;3.22;2.15;;;2.10;99.90;;;;;;5045787;28;20207;-64
2023/01/29 13:39:22;;;;;;;2.10;1.83;;;2.00;99.90;;;;;;5052335;28;21003;-64
2023/01/29 13:41:51;;;;;;;2.40;2.20;;;2.00;99.90;;;;;;5045543;28;20676;-64
2023/01/29 13:44:25;;;;;;;2.15;1.95;;;2.00;99.90;;;;;;5051914;28;20234;-63
2023/01/29 13:46:56;;;;;;;2.15;1.88;;;1.90;99.90;;;;;;5053358;28;20215;-64
2023/01/29 13:49:29;;;;;;;2.05;1.67;;;1.80;99.90;;;;;;5052512;28;20718;-64
2023/01/29 13:51:59;;;;;;;1.90;1.80;;;1.70;99.90;;;;;;5052979;28;20691;-65